createdAt,value
2023-01-01T00:01:23.361Z,41.97
2023-01-01T00:03:56.884Z,31.45
2023-01-01T00:06:23.456Z,30.17
2023-01-01T00:09:10.284Z,31.40
2023-01-01T00:11:36.885Z,28.38
2023-01-01T00:14:10.093Z,24.65
2023-01-01T00:16:38.857Z,21.65
2023-01-01T00:19:05.419Z,20.60
2023-01-01T00:21:31.953Z,18.33
2023-01-01T00:23:58.399Z,17.02
2023-01-01T00:26:28.211Z,16.88
2023-01-01T00:28:59.695Z,16.30
2023-01-01T00:31:26.142Z,15.50
2023-01-01T00:33:53.728Z,12.70
2023-01-01T00:36:21.254Z,20.85
2023-01-01T00:38:47.779Z,18.10
2023-01-01T00:41:15.011Z,14.10
2023-01-01T00:43:42.028Z,11.80
2023-01-01T00:46:08.742Z,10.88
2023-01-01T00:48:35.334Z,18.27
2023-01-01T00:51:02.251Z,11.60
2023-01-01T00:53:28.691Z,7.97
2023-01-01T00:55:56.325Z,10.88
2023-01-01T00:58:23.393Z,13.30
2023-01-01T01:00:50.086Z,12.75
2023-01-01T01:03:29.000Z,9.85
2023-01-01T01:05:55.676Z,11.32
2023-01-01T01:08:28.560Z,14.57
2023-01-01T01:11:04.400Z,10.18
2023-01-01T01:13:30.871Z,7.28
2023-01-01T01:15:57.315Z,7.05
2023-01-01T01:18:23.816Z,6.00
2023-01-01T01:20:51.789Z,9.02
2023-01-01T01:23:18.713Z,6.25
2023-01-01T01:25:45.673Z,6.50
2023-01-01T01:28:12.182Z,6.90
2023-01-01T01:30:39.265Z,5.80
2023-01-01T01:33:05.741Z,7.05
2023-01-01T01:35:33.115Z,8.57
2023-01-01T01:37:59.596Z,5.53
2023-01-01T01:40:26.125Z,6.93
2023-01-01T01:42:52.627Z,7.43
2023-01-01T01:45:19.479Z,6.03
2023-01-01T01:47:50.788Z,6.53
2023-01-01T01:50:23.488Z,4.93
2023-01-01T01:53:10.170Z,4.57
2023-01-01T01:55:40.108Z,6.22
2023-01-01T01:58:07.646Z,5.50
2023-01-01T02:00:34.110Z,4.13
2023-01-01T02:03:05.532Z,4.25
2023-01-01T02:05:32.797Z,4.50
2023-01-01T02:07:59.792Z,4.75
2023-01-01T02:10:26.888Z,4.55
2023-01-01T02:12:53.660Z,4.97
2023-01-01T02:15:21.345Z,3.97
2023-01-01T02:18:06.649Z,3.40
2023-01-01T02:20:37.379Z,6.93
2023-01-01T02:23:04.629Z,4.65
2023-01-01T02:25:34.193Z,4.15
2023-01-01T02:28:24.439Z,8.40
2023-01-01T02:30:51.091Z,6.90
2023-01-01T02:33:20.101Z,9.90
2023-01-01T02:35:50.949Z,6.72
2023-01-01T02:38:17.330Z,3.67
2023-01-01T02:40:51.638Z,5.90
2023-01-01T02:43:24.437Z,4.32
2023-01-01T02:45:51.716Z,4.80
2023-01-01T02:48:37.219Z,3.60
2023-01-01T02:51:04.981Z,4.00
2023-01-01T02:53:33.643Z,5.18
2023-01-01T02:56:03.294Z,2.75
2023-01-01T02:59:00.124Z,3.90
2023-01-01T03:01:56.140Z,5.80
2023-01-01T03:04:31.677Z,4.00
2023-01-01T03:06:58.144Z,4.05
2023-01-01T03:09:31.119Z,1.85
2023-01-01T03:12:02.212Z,4.65
2023-01-01T03:14:50.700Z,3.47
2023-01-01T03:17:26.704Z,2.97
2023-01-01T03:19:53.764Z,3.72
2023-01-01T03:22:21.616Z,3.33
2023-01-01T03:24:58.025Z,4.57
2023-01-01T03:27:30.668Z,5.22
2023-01-01T03:29:59.522Z,4.30
2023-01-01T03:32:54.036Z,4.13
2023-01-01T03:35:21.780Z,1.67
2023-01-01T03:37:50.085Z,2.67
2023-01-01T03:40:18.198Z,3.88
2023-01-01T03:42:48.213Z,2.92
2023-01-01T03:45:20.947Z,4.95
2023-01-01T03:47:47.883Z,3.55
2023-01-01T03:50:14.783Z,4.25
2023-01-01T03:53:00.038Z,4.93
2023-01-01T03:55:33.002Z,5.28
2023-01-01T03:57:59.386Z,5.13
2023-01-01T04:00:28.871Z,3.80
2023-01-01T04:03:16.532Z,4.35
2023-01-01T04:05:43.444Z,4.25
2023-01-01T04:08:10.443Z,5.60
2023-01-01T04:10:38.191Z,3.67
2023-01-01T04:13:05.797Z,4.05
2023-01-01T04:15:32.965Z,5.38
2023-01-01T04:17:59.571Z,5.18
2023-01-01T04:20:26.594Z,4.07
2023-01-01T04:22:56.808Z,5.50
2023-01-01T04:25:23.243Z,7.25
2023-01-01T04:27:49.685Z,6.65
2023-01-01T04:30:16.474Z,4.03
2023-01-01T04:32:43.254Z,4.57
2023-01-01T04:35:12.707Z,4.50
2023-01-01T04:37:40.390Z,7.38
2023-01-01T04:40:07.723Z,4.93
2023-01-01T04:42:34.322Z,4.65
2023-01-01T04:45:01.040Z,5.22
2023-01-01T04:47:27.518Z,3.63
2023-01-01T04:49:54.138Z,3.47
2023-01-01T04:52:20.828Z,4.63
2023-01-01T04:54:47.243Z,3.78
2023-01-01T04:57:13.876Z,5.78
2023-01-01T04:59:40.969Z,4.82
2023-01-01T05:02:07.863Z,6.18
2023-01-01T05:04:34.424Z,4.03
2023-01-01T05:07:00.846Z,3.30
2023-01-01T05:09:27.519Z,3.42
2023-01-01T05:11:55.247Z,3.58
2023-01-01T05:14:21.682Z,3.50
2023-01-01T05:16:48.161Z,6.03
2023-01-01T05:19:14.545Z,3.90
2023-01-01T05:21:41.021Z,4.10
2023-01-01T05:24:08.461Z,3.72
2023-01-01T05:26:36.640Z,5.35
2023-01-01T05:29:03.665Z,2.83
2023-01-01T05:31:31.922Z,4.35
2023-01-01T05:36:28.837Z,3.90
2023-01-01T05:38:55.803Z,3.38
2023-01-01T05:41:22.822Z,4.07
2023-01-01T05:43:50.168Z,5.85
2023-01-01T05:46:18.461Z,6.15
2023-01-01T05:48:45.197Z,3.42
2023-01-01T05:51:16.137Z,5.40
2023-01-01T05:53:44.423Z,6.82
2023-01-01T05:56:11.433Z,5.47
2023-01-01T05:58:38.103Z,4.68
2023-01-01T06:01:13.097Z,6.07
2023-01-01T06:03:40.023Z,3.28
2023-01-01T06:06:13.808Z,2.90
2023-01-01T06:08:40.763Z,6.03
2023-01-01T06:11:08.182Z,7.20
2023-01-01T06:13:35.061Z,5.15
2023-01-01T06:16:02.170Z,5.82
2023-01-01T06:18:33.213Z,4.25
2023-01-01T06:21:09.851Z,3.25
2023-01-01T06:23:36.488Z,7.65
2023-01-01T06:26:06.234Z,3.03
2023-01-01T06:28:32.829Z,4.50
2023-01-01T06:31:00.338Z,3.72
2023-01-01T06:33:26.893Z,4.90
2023-01-01T06:35:53.349Z,5.38
2023-01-01T06:38:19.859Z,4.50
2023-01-01T06:40:55.221Z,8.27
2023-01-01T06:43:21.824Z,9.00
2023-01-01T06:45:48.310Z,4.55
2023-01-01T06:48:14.767Z,5.65
2023-01-01T06:50:41.762Z,6.72
2023-01-01T06:53:08.175Z,4.82
2023-01-01T06:55:35.709Z,4.10
2023-01-01T06:58:02.103Z,4.22
2023-01-01T07:00:28.974Z,4.10
2023-01-01T07:02:55.516Z,7.28
2023-01-01T07:05:22.099Z,1.95
2023-01-01T07:07:48.493Z,4.35
2023-01-01T07:10:14.968Z,5.00
2023-01-01T07:12:41.353Z,6.38
2023-01-01T07:15:08.222Z,4.45
2023-01-01T07:17:34.666Z,4.32
2023-01-01T07:20:01.085Z,6.80
2023-01-01T07:22:27.468Z,4.13
2023-01-01T07:24:53.947Z,6.70
2023-01-01T07:27:20.347Z,7.95
2023-01-01T07:29:46.746Z,4.03
2023-01-01T07:32:14.001Z,4.72
2023-01-01T07:34:40.441Z,6.85
2023-01-01T07:37:06.990Z,4.60
2023-01-01T07:39:33.367Z,4.20
2023-01-01T07:42:04.896Z,4.93
2023-01-01T07:44:34.041Z,4.95
2023-01-01T07:47:04.270Z,6.40
2023-01-01T07:49:30.886Z,6.28
2023-01-01T07:51:57.426Z,5.25
2023-01-01T07:54:23.843Z,5.28
2023-01-01T07:56:50.233Z,3.97
2023-01-01T07:59:20.503Z,6.15
2023-01-01T08:01:47.334Z,5.65
2023-01-01T08:04:13.861Z,7.30
2023-01-01T08:06:40.480Z,5.18
2023-01-01T08:09:06.906Z,5.20
2023-01-01T08:11:33.549Z,4.65
2023-01-01T08:14:00.691Z,5.40
2023-01-01T08:16:27.160Z,5.93
2023-01-01T08:18:53.618Z,4.63
2023-01-01T08:21:20.120Z,4.72
2023-01-01T08:23:46.526Z,5.45
2023-01-01T08:26:14.367Z,5.72
2023-01-01T08:28:40.789Z,5.07
2023-01-01T08:31:07.251Z,7.25
2023-01-01T08:33:42.860Z,6.15
2023-01-01T08:36:14.367Z,7.00
2023-01-01T08:38:40.783Z,4.13
2023-01-01T08:41:07.185Z,6.32
2023-01-01T08:43:33.608Z,5.65
2023-01-01T08:46:00.097Z,6.72
2023-01-01T08:48:30.764Z,5.82
2023-01-01T08:51:03.123Z,5.63
2023-01-01T08:53:30.482Z,5.13
2023-01-01T08:56:01.351Z,6.55
2023-01-01T08:58:28.161Z,7.20
2023-01-01T09:00:54.657Z,7.53
2023-01-01T09:03:21.170Z,4.35
2023-01-01T09:05:47.810Z,5.32
2023-01-01T09:08:17.907Z,6.43
2023-01-01T09:10:44.334Z,2.88
2023-01-01T09:13:11.747Z,6.57
2023-01-01T09:15:38.417Z,3.85
2023-01-01T09:18:05.128Z,5.57
2023-01-01T09:20:31.609Z,3.40
2023-01-01T09:23:02.575Z,8.38
2023-01-01T09:25:32.649Z,7.40
2023-01-01T09:28:02.929Z,5.28
2023-01-01T09:30:29.731Z,7.50
2023-01-01T09:32:56.130Z,8.27
2023-01-01T09:35:22.735Z,7.65
2023-01-01T09:37:49.165Z,5.70
2023-01-01T09:40:18.693Z,5.28
2023-01-01T09:42:55.095Z,5.10
2023-01-01T09:45:29.104Z,4.95
2023-01-01T09:47:57.885Z,6.78
2023-01-01T09:50:28.009Z,6.80
2023-01-01T09:53:04.177Z,4.50
2023-01-01T09:55:37.798Z,5.97
2023-01-01T09:58:04.283Z,6.72
2023-01-01T10:00:33.271Z,6.53
2023-01-01T10:03:25.558Z,5.88
2023-01-01T10:05:55.538Z,6.35
2023-01-01T10:08:40.274Z,3.47
2023-01-01T10:11:13.959Z,5.50
2023-01-01T10:13:45.155Z,6.28
2023-01-01T10:16:19.241Z,7.93
2023-01-01T10:18:51.753Z,7.07
2023-01-01T10:21:21.901Z,9.38
2023-01-01T10:23:55.869Z,6.05
2023-01-01T10:26:24.672Z,6.55
2023-01-01T10:29:09.529Z,4.45
2023-01-01T10:31:41.324Z,5.43
2023-01-01T10:34:19.970Z,5.05
2023-01-01T10:36:46.710Z,5.13
2023-01-01T10:39:15.185Z,3.75
2023-01-01T10:41:42.116Z,6.57
2023-01-01T10:44:09.631Z,6.60
2023-01-01T10:46:37.346Z,6.30
2023-01-01T10:49:07.431Z,6.32
2023-01-01T10:51:36.647Z,5.53
2023-01-01T10:54:03.145Z,4.20
2023-01-01T10:56:39.510Z,7.13
2023-01-01T10:59:26.067Z,6.00
2023-01-01T11:02:07.922Z,6.90
2023-01-01T11:04:34.755Z,5.95
2023-01-01T11:07:06.231Z,6.13
2023-01-01T11:09:32.782Z,4.65
2023-01-01T11:12:05.581Z,7.30
2023-01-01T11:14:38.010Z,7.88
2023-01-01T11:17:04.768Z,5.97
2023-01-01T11:19:36.770Z,7.15
2023-01-01T11:22:04.144Z,6.38
2023-01-01T11:24:31.458Z,5.25
2023-01-01T11:27:13.173Z,8.77
2023-01-01T11:29:39.619Z,6.07
2023-01-01T11:32:07.002Z,7.07
2023-01-01T11:34:33.482Z,5.75
2023-01-01T11:37:19.036Z,7.72
2023-01-01T11:39:47.063Z,4.93
2023-01-01T11:42:18.289Z,10.18
2023-01-01T11:44:46.726Z,8.23
2023-01-01T11:47:22.050Z,7.07
2023-01-01T11:49:53.809Z,6.63
2023-01-01T11:52:28.696Z,5.28
2023-01-01T11:55:01.289Z,6.43
2023-01-01T11:57:27.968Z,6.82
2023-01-01T12:00:00.785Z,6.97
2023-01-01T12:02:34.331Z,7.60
2023-01-01T12:05:15.984Z,5.43
2023-01-01T12:07:44.049Z,4.55
2023-01-01T12:10:28.918Z,4.70
2023-01-01T12:13:06.428Z,8.70
2023-01-01T12:15:34.329Z,4.57
2023-01-01T12:18:18.850Z,7.03
2023-01-01T12:20:50.615Z,6.43
2023-01-01T12:23:18.367Z,6.88
2023-01-01T12:25:46.366Z,8.85
2023-01-01T12:28:20.272Z,6.47
2023-01-01T12:31:05.695Z,8.40
2023-01-01T12:33:48.836Z,5.57
2023-01-01T12:36:20.535Z,7.90
2023-01-01T12:38:47.010Z,6.63
2023-01-01T12:41:13.537Z,4.13
2023-01-01T12:43:39.933Z,9.60
2023-01-01T12:46:12.728Z,4.80
2023-01-01T12:48:48.984Z,4.57
2023-01-01T12:51:25.868Z,6.25
2023-01-01T12:53:52.362Z,6.18
2023-01-01T12:56:23.074Z,6.97
2023-01-01T12:59:02.113Z,6.97
2023-01-01T13:01:33.351Z,6.28
2023-01-01T13:04:02.546Z,5.47
2023-01-01T13:06:50.397Z,4.20
2023-01-01T13:09:18.797Z,7.18
2023-01-01T13:11:50.866Z,4.03
2023-01-01T13:14:17.360Z,6.60
2023-01-01T13:16:53.978Z,7.90
2023-01-01T13:19:30.809Z,3.85
2023-01-01T13:21:57.273Z,7.25
2023-01-01T13:24:24.851Z,6.57
2023-01-01T13:26:51.708Z,3.78
2023-01-01T13:29:18.079Z,4.97
2023-01-01T13:31:44.575Z,5.57
2023-01-01T13:34:29.933Z,6.45
2023-01-01T13:37:13.777Z,7.95
2023-01-01T13:40:04.415Z,8.10
2023-01-01T13:42:43.337Z,6.88
2023-01-01T13:45:36.583Z,9.48
2023-01-01T13:48:02.468Z,6.32
2023-01-01T13:50:46.983Z,8.23
2023-01-01T13:53:26.181Z,9.02
2023-01-01T13:55:55.651Z,8.05
2023-01-01T13:58:42.727Z,5.82
2023-01-01T14:01:24.473Z,14.10
2023-01-01T14:03:53.024Z,8.82
2023-01-01T14:06:22.499Z,7.07
2023-01-01T14:09:00.684Z,6.70
2023-01-01T14:11:28.272Z,10.30
2023-01-01T14:13:54.695Z,9.55
2023-01-01T14:16:21.270Z,11.57
2023-01-01T14:18:49.299Z,10.45
2023-01-01T14:21:20.140Z,17.25
2023-01-01T14:23:48.524Z,17.95
2023-01-01T14:26:17.802Z,9.20
2023-01-01T14:28:44.532Z,11.38
2023-01-01T14:31:16.918Z,7.75
2023-01-01T14:33:43.657Z,9.43
2023-01-01T14:36:27.559Z,7.88
2023-01-01T14:38:55.203Z,8.70
2023-01-01T14:41:29.274Z,6.10
2023-01-01T14:44:07.956Z,6.60
2023-01-01T14:46:39.613Z,8.30
2023-01-01T14:49:09.310Z,10.10
2023-01-01T14:51:42.513Z,6.85
2023-01-01T14:54:15.629Z,5.28
2023-01-01T14:56:42.162Z,9.05
2023-01-01T14:59:13.453Z,5.35
2023-01-01T15:01:41.658Z,7.82
2023-01-01T15:04:24.259Z,8.60
2023-01-01T15:06:57.435Z,5.80
2023-01-01T15:09:24.116Z,6.63
2023-01-01T15:11:54.316Z,6.47
2023-01-01T15:14:37.486Z,5.32
2023-01-01T15:17:11.117Z,6.03
2023-01-01T15:19:43.900Z,3.83
2023-01-01T15:22:11.336Z,6.63
2023-01-01T15:24:38.123Z,4.03
2023-01-01T15:27:06.598Z,7.78
2023-01-01T15:29:35.365Z,5.45
2023-01-01T15:32:05.084Z,5.32
2023-01-01T15:34:33.385Z,4.80
2023-01-01T15:37:19.775Z,4.97
2023-01-01T15:39:47.588Z,7.28
2023-01-01T15:42:35.598Z,5.35
2023-01-01T15:45:13.996Z,5.53
2023-01-01T15:47:40.445Z,5.53
2023-01-01T15:50:11.500Z,4.78
2023-01-01T15:52:38.491Z,7.32
2023-01-01T15:55:05.239Z,5.72
2023-01-01T15:57:31.708Z,5.90
2023-01-01T15:59:58.216Z,6.53
2023-01-01T16:02:32.256Z,7.00
2023-01-01T16:04:59.165Z,7.63
2023-01-01T16:07:26.387Z,7.18
2023-01-01T16:09:57.835Z,4.88
2023-01-01T16:12:25.092Z,6.20
2023-01-01T16:14:51.614Z,3.53
2023-01-01T16:17:20.070Z,3.33
2023-01-01T16:19:47.221Z,5.38
2023-01-01T16:22:15.630Z,3.45
2023-01-01T16:24:43.147Z,5.82
2023-01-01T16:27:09.733Z,3.20
2023-01-01T16:29:36.287Z,3.53
2023-01-01T16:32:03.021Z,4.15
2023-01-01T16:34:29.513Z,5.35
2023-01-01T16:36:55.993Z,4.15
2023-01-01T16:39:23.109Z,3.50
2023-01-01T16:41:49.531Z,4.80
2023-01-01T16:44:16.113Z,5.32
2023-01-01T16:46:42.879Z,8.18
2023-01-01T16:49:09.385Z,8.20
2023-01-01T16:51:36.978Z,4.85
2023-01-01T16:54:04.970Z,7.40
2023-01-01T16:56:31.395Z,9.98
2023-01-01T16:59:03.264Z,57.85
2023-01-01T17:01:30.537Z,76.68
2023-01-01T17:03:57.447Z,38.88
2023-01-01T17:06:23.903Z,27.55
2023-01-01T17:08:50.346Z,25.17
2023-01-01T17:11:18.190Z,19.27
2023-01-01T17:13:45.779Z,17.35
2023-01-01T17:16:19.388Z,31.02
2023-01-01T17:21:36.750Z,12.25
2023-01-01T17:24:03.242Z,18.83
2023-01-01T17:26:29.720Z,10.30
2023-01-01T17:29:00.575Z,10.07
2023-01-01T17:31:29.254Z,14.05
2023-01-01T17:33:56.532Z,12.70
2023-01-01T17:36:23.276Z,14.25
2023-01-01T17:38:49.756Z,19.30
2023-01-01T17:41:16.722Z,15.13
2023-01-01T17:43:44.266Z,19.58
2023-01-01T17:46:13.869Z,10.07
2023-01-01T17:48:40.561Z,13.95
2023-01-01T17:51:07.210Z,28.42
2023-01-01T17:53:33.766Z,16.98
2023-01-01T17:56:00.230Z,14.98
2023-01-01T17:58:30.762Z,15.63
2023-01-01T18:01:12.594Z,15.02
2023-01-01T18:03:40.468Z,15.75
2023-01-01T18:06:08.647Z,26.75
2023-01-01T18:08:35.183Z,24.38
2023-01-01T18:11:01.654Z,25.63
2023-01-01T18:13:28.150Z,18.95
2023-01-01T18:15:59.126Z,26.05
2023-01-01T18:18:25.624Z,53.88
2023-01-01T18:20:52.042Z,21.83
2023-01-01T18:23:18.476Z,32.55
2023-01-01T18:25:44.934Z,21.15
2023-01-01T18:28:11.398Z,38.70
2023-01-01T18:30:37.959Z,29.35
2023-01-01T18:33:04.446Z,27.42
2023-01-01T18:35:30.917Z,23.77
2023-01-01T18:37:57.375Z,24.92
2023-01-01T18:40:24.069Z,30.58
2023-01-01T18:43:04.446Z,16.70
2023-01-01T18:45:31.105Z,23.10
2023-01-01T18:47:57.617Z,20.50
2023-01-01T18:50:26.751Z,29.17
2023-01-01T18:52:54.526Z,23.65
2023-01-01T18:55:26.816Z,25.65
2023-01-01T18:58:01.852Z,34.05
2023-01-01T19:00:30.990Z,33.25
2023-01-01T19:03:01.650Z,30.85
2023-01-01T19:05:32.730Z,29.70
2023-01-01T19:07:59.131Z,31.38
2023-01-01T19:10:26.768Z,27.30
2023-01-01T19:12:54.966Z,40.92
2023-01-01T19:15:21.677Z,22.40
2023-01-01T19:17:48.204Z,23.92
2023-01-01T19:20:18.905Z,39.63
2023-01-01T19:22:45.777Z,27.85
2023-01-01T19:25:32.128Z,28.17
2023-01-01T19:28:11.794Z,32.50
2023-01-01T19:30:38.239Z,26.83
2023-01-01T19:33:04.628Z,26.52
2023-01-01T19:35:31.013Z,30.80
2023-01-01T19:37:57.444Z,25.42
2023-01-01T19:40:23.965Z,27.33
2023-01-01T19:42:50.602Z,32.72
2023-01-01T19:45:17.056Z,27.00
2023-01-01T19:47:44.199Z,30.00
2023-01-01T19:50:11.718Z,25.10
2023-01-01T19:52:38.714Z,22.02
2023-01-01T19:55:05.880Z,29.38
2023-01-01T19:57:32.340Z,26.88
2023-01-01T20:00:01.058Z,30.55
2023-01-01T20:02:45.542Z,25.85
2023-01-01T20:05:14.558Z,19.00
2023-01-01T20:07:41.037Z,28.48
2023-01-01T20:10:07.671Z,29.67
2023-01-01T20:12:34.093Z,32.90
2023-01-01T20:15:00.613Z,23.92
2023-01-01T20:17:27.227Z,26.80
2023-01-01T20:19:54.766Z,22.60
2023-01-01T20:22:22.217Z,44.05
2023-01-01T20:24:48.663Z,23.30
2023-01-01T20:27:17.695Z,25.08
2023-01-01T20:29:44.524Z,25.55
2023-01-01T20:32:12.909Z,25.52
2023-01-01T20:34:40.409Z,25.20
2023-01-01T20:37:25.569Z,25.70
2023-01-01T20:39:52.346Z,26.10
2023-01-01T20:42:18.863Z,21.58
2023-01-01T20:44:45.726Z,27.52
2023-01-01T20:47:13.038Z,18.98
2023-01-01T20:49:40.598Z,30.45
2023-01-01T20:52:07.083Z,28.02
2023-01-01T20:54:33.509Z,19.33
2023-01-01T20:57:00.032Z,38.42
2023-01-01T20:59:36.325Z,22.50
2023-01-01T21:02:06.886Z,20.20
2023-01-01T21:04:38.098Z,21.02
2023-01-01T21:07:08.719Z,23.50
2023-01-01T21:09:35.235Z,27.92
2023-01-01T21:12:02.037Z,25.02
2023-01-01T21:14:28.780Z,19.50
2023-01-01T21:16:56.458Z,28.33
2023-01-01T21:19:26.951Z,27.35
2023-01-01T21:21:55.799Z,25.35
2023-01-01T21:24:26.827Z,23.10
2023-01-01T21:27:00.614Z,22.90
2023-01-01T21:29:30.955Z,20.15
2023-01-01T21:32:05.261Z,21.75
2023-01-01T21:34:41.947Z,27.63
2023-01-01T21:37:11.482Z,23.60
2023-01-01T21:39:37.931Z,21.88
2023-01-01T21:42:23.891Z,27.63
2023-01-01T21:44:55.514Z,19.75
2023-01-01T21:47:23.284Z,20.08
2023-01-01T21:49:52.418Z,19.88
2023-01-01T21:52:20.926Z,23.25
2023-01-01T21:54:50.286Z,22.08
2023-01-01T21:57:22.645Z,21.48
2023-01-01T21:59:49.784Z,21.27
2023-01-01T22:02:28.842Z,16.45
2023-01-01T22:04:55.529Z,26.00
2023-01-01T22:10:16.514Z,16.60
2023-01-01T22:12:43.097Z,16.20
2023-01-01T22:15:27.801Z,17.40
2023-01-01T22:18:09.595Z,16.15
2023-01-01T22:20:38.191Z,14.68
2023-01-01T22:23:24.666Z,15.10
2023-01-01T22:25:51.661Z,14.05
2023-01-01T22:28:25.408Z,17.77
2023-01-01T22:30:58.717Z,17.40
2023-01-01T22:33:36.318Z,15.35
2023-01-01T22:36:03.070Z,15.48
2023-01-01T22:38:32.085Z,20.02
2023-01-01T22:40:58.785Z,16.10
2023-01-01T22:43:32.401Z,14.40
2023-01-01T22:46:03.291Z,15.10
2023-01-01T22:48:33.943Z,12.50
2023-01-01T22:51:12.750Z,10.63
2023-01-01T22:53:39.209Z,13.75
2023-01-01T22:56:05.717Z,12.13
2023-01-01T22:58:32.215Z,13.68
2023-01-01T23:00:59.929Z,13.20
2023-01-01T23:03:26.719Z,12.90
2023-01-01T23:05:54.233Z,13.68
2023-01-01T23:08:20.830Z,14.82
2023-01-01T23:10:47.667Z,12.50
2023-01-01T23:13:32.914Z,11.75
2023-01-01T23:16:02.590Z,14.85
2023-01-01T23:18:30.451Z,13.95
2023-01-01T23:20:57.453Z,16.80
2023-01-01T23:23:24.453Z,11.70
2023-01-01T23:25:51.089Z,15.35
2023-01-01T23:28:17.944Z,13.35
2023-01-01T23:30:44.643Z,13.57
2023-01-01T23:33:13.987Z,13.25
2023-01-01T23:35:40.539Z,10.93
2023-01-01T23:38:07.327Z,9.85
2023-01-01T23:40:33.790Z,14.95
2023-01-01T23:43:00.390Z,14.43
2023-01-01T23:45:29.411Z,10.70
2023-01-01T23:47:56.249Z,10.85
2023-01-01T23:50:23.189Z,11.55
2023-01-01T23:52:49.638Z,11.18
2023-01-01T23:55:16.136Z,13.30
2023-01-01T23:57:42.510Z,10.20
